createdAt,value
2019-05-18T05:51:04.536Z,19.80
2019-05-18T05:53:35.838Z,19.57
2019-05-18T05:56:06.929Z,19.40
2019-05-18T06:01:53.397Z,20.02
2019-05-18T06:04:24.429Z,18.52
2019-05-18T06:06:55.472Z,20.75
2019-05-18T06:09:26.468Z,19.02
2019-05-18T06:11:57.556Z,20.15
2019-05-18T06:14:28.576Z,18.70
2019-05-18T06:16:59.548Z,18.80
2019-05-18T06:19:30.498Z,18.73
2019-05-18T06:22:01.532Z,17.02
2019-05-18T06:24:32.558Z,25.85
2019-05-18T06:27:04.587Z,19.95
2019-05-18T06:29:35.678Z,20.55
2019-05-18T06:32:06.765Z,20.50
2019-05-18T06:34:37.785Z,18.07
2019-05-18T06:37:08.817Z,16.82
2019-05-18T06:39:40.855Z,16.48
2019-05-18T06:42:11.886Z,16.82
2019-05-18T06:44:42.828Z,15.75
2019-05-18T06:47:13.859Z,15.78
2019-05-18T06:49:44.886Z,16.05
2019-05-18T06:52:15.929Z,14.58
2019-05-18T06:54:46.959Z,15.45
2019-05-18T06:57:17.977Z,16.77
2019-05-18T06:59:49.517Z,16.07
2019-05-18T07:02:20.532Z,16.75
2019-05-18T07:04:51.555Z,16.07
2019-05-18T07:07:22.569Z,14.93
2019-05-18T07:09:53.533Z,16.25
2019-05-18T07:12:24.618Z,16.00
2019-05-18T07:14:55.662Z,27.98
2019-05-18T07:17:26.749Z,16.37
2019-05-18T07:19:57.768Z,15.50
2019-05-18T07:22:28.789Z,16.65
2019-05-18T07:24:59.879Z,15.30
2019-05-18T07:27:30.921Z,16.93
2019-05-18T07:30:01.954Z,16.93
2019-05-18T07:32:32.948Z,17.32
2019-05-18T07:35:04.167Z,17.37
2019-05-18T07:37:35.910Z,15.28
2019-05-18T07:40:08.303Z,16.15
2019-05-18T07:42:39.731Z,16.07
2019-05-18T07:45:11.074Z,15.38
2019-05-18T07:47:42.101Z,15.65
2019-05-18T07:50:13.443Z,14.87
2019-05-18T07:52:44.535Z,15.08
2019-05-18T07:55:15.674Z,13.80
2019-05-18T07:57:47.410Z,15.38
2019-05-18T08:00:18.604Z,14.73
2019-05-18T08:02:49.804Z,13.50
2019-05-18T08:05:21.610Z,14.98
2019-05-18T08:07:52.635Z,13.50
2019-05-18T08:10:26.575Z,13.83
2019-05-18T08:12:57.599Z,14.68
2019-05-18T08:15:28.664Z,13.18
2019-05-18T08:17:58.647Z,13.32
2019-05-18T08:20:29.411Z,13.83
2019-05-18T08:23:00.441Z,12.88
2019-05-18T08:25:31.412Z,13.22
2019-05-18T08:28:02.506Z,12.93
2019-05-18T08:30:33.533Z,13.05
2019-05-18T08:33:04.777Z,12.98
2019-05-18T08:35:35.766Z,12.90
2019-05-18T08:38:06.811Z,11.85
2019-05-18T08:40:37.832Z,11.85
2019-05-18T08:43:08.849Z,12.23
2019-05-18T08:45:40.859Z,22.00
2019-05-18T08:48:11.909Z,11.90
2019-05-18T08:50:43.048Z,11.95
2019-05-18T08:53:13.995Z,10.50
2019-05-18T08:55:45.023Z,18.52
2019-05-18T08:58:16.123Z,24.00
2019-05-18T09:00:47.154Z,11.40
2019-05-18T09:03:18.215Z,12.78
2019-05-18T09:05:49.269Z,9.85
2019-05-18T09:08:20.289Z,10.82
2019-05-18T09:10:51.365Z,11.03
2019-05-18T09:13:22.375Z,10.53
2019-05-18T09:15:53.329Z,9.88
2019-05-18T09:18:24.358Z,9.55
2019-05-18T09:20:55.482Z,10.70
2019-05-18T09:23:26.508Z,9.63
2019-05-18T09:25:57.605Z,9.38
2019-05-18T09:28:28.642Z,9.78
2019-05-18T09:30:59.686Z,9.63
2019-05-18T09:33:30.731Z,11.97
2019-05-18T09:36:01.849Z,10.53
2019-05-18T09:38:33.526Z,8.78
2019-05-18T09:41:04.745Z,17.75
2019-05-18T09:43:35.886Z,14.23
2019-05-18T09:46:06.994Z,10.35
2019-05-18T09:48:38.017Z,27.45
2019-05-18T09:51:09.046Z,9.98
2019-05-18T09:53:50.705Z,9.25
2019-05-18T09:56:12.898Z,8.68
2019-05-18T09:58:43.907Z,8.30
2019-05-18T10:01:14.973Z,9.13
2019-05-18T10:03:45.972Z,8.83
2019-05-18T10:06:17.072Z,7.92
2019-05-18T10:08:48.148Z,8.33
2019-05-18T10:11:19.170Z,7.55
2019-05-18T10:13:50.181Z,8.03
2019-05-18T10:16:21.322Z,7.45
2019-05-18T10:18:52.395Z,8.38
2019-05-18T10:21:23.496Z,8.70
2019-05-18T10:23:54.723Z,7.75
2019-05-18T10:26:25.752Z,7.97
2019-05-18T10:28:56.777Z,9.68
2019-05-18T10:31:27.781Z,8.43
2019-05-18T10:33:58.852Z,8.75
2019-05-18T10:36:29.936Z,9.13
2019-05-18T10:39:00.989Z,10.00
2019-05-18T10:41:33.343Z,8.93
2019-05-18T10:44:04.453Z,9.25
2019-05-18T10:46:35.555Z,12.15
2019-05-18T10:49:06.645Z,12.47
2019-05-18T10:51:37.743Z,12.37
2019-05-18T10:54:08.768Z,10.75
2019-05-18T10:56:39.792Z,10.05
2019-05-18T10:59:12.011Z,10.05
2019-05-18T11:01:43.995Z,11.60
2019-05-18T11:04:15.332Z,11.40
2019-05-18T11:06:46.353Z,12.37
2019-05-18T11:09:17.385Z,10.58
2019-05-18T11:11:48.541Z,12.03
2019-05-18T11:14:19.685Z,10.58
2019-05-18T11:16:50.702Z,10.53
2019-05-18T11:19:22.500Z,10.95
2019-05-18T11:21:53.644Z,10.55
2019-05-18T11:24:24.687Z,11.30
2019-05-18T11:26:55.831Z,11.05
2019-05-18T11:29:26.930Z,10.50
2019-05-18T11:31:57.928Z,8.85
2019-05-18T11:34:28.936Z,8.65
2019-05-18T11:37:03.106Z,9.63
2019-05-18T11:39:32.771Z,9.43
2019-05-18T11:42:03.817Z,9.48
2019-05-18T11:44:34.836Z,8.95
2019-05-18T11:47:05.793Z,7.60
2019-05-18T11:49:36.818Z,7.80
2019-05-18T11:52:07.897Z,8.15
2019-05-18T11:54:38.924Z,7.55
2019-05-18T11:57:09.940Z,7.35
2019-05-18T11:59:40.982Z,7.58
2019-05-18T12:02:12.057Z,6.65
2019-05-18T12:04:43.084Z,6.00
2019-05-18T12:07:14.110Z,6.75
2019-05-18T12:09:45.056Z,6.40
2019-05-18T12:12:16.178Z,6.37
2019-05-18T12:14:47.210Z,4.92
2019-05-18T12:17:18.086Z,4.62
2019-05-18T12:19:49.126Z,4.85
2019-05-18T12:22:20.079Z,4.70
2019-05-18T12:24:51.160Z,5.17
2019-05-18T12:27:22.176Z,5.08
2019-05-18T12:29:53.186Z,5.10
2019-05-18T12:32:24.132Z,4.37
2019-05-18T12:34:55.210Z,4.67
2019-05-18T12:37:26.229Z,5.12
2019-05-18T12:39:57.228Z,4.70
2019-05-18T12:42:28.259Z,4.15
2019-05-18T12:44:59.273Z,4.47
2019-05-18T12:47:30.291Z,4.33
2019-05-18T12:50:02.384Z,4.40
2019-05-18T12:52:33.456Z,4.42
2019-05-18T12:55:06.676Z,5.10
2019-05-18T12:57:37.683Z,4.42
2019-05-18T13:00:13.876Z,4.22
2019-05-18T13:02:45.878Z,3.95
2019-05-18T13:05:17.094Z,3.80
2019-05-18T13:07:48.179Z,4.20
2019-05-18T13:10:19.796Z,4.40
2019-05-18T13:12:50.794Z,4.42
2019-05-18T13:15:22.418Z,4.58
2019-05-18T13:17:53.430Z,4.42
2019-05-18T13:20:24.436Z,4.75
2019-05-18T13:22:55.443Z,4.47
2019-05-18T13:25:26.373Z,3.80
2019-05-18T13:27:57.376Z,4.30
2019-05-18T13:30:28.454Z,3.90
2019-05-18T13:32:59.466Z,4.17
2019-05-18T13:35:30.477Z,4.42
2019-05-18T13:38:01.494Z,3.77
2019-05-18T13:40:32.505Z,3.90
2019-05-18T13:43:03.548Z,3.58
2019-05-18T13:45:34.547Z,3.58
2019-05-18T13:48:05.476Z,3.50
2019-05-18T13:50:36.537Z,3.42
2019-05-18T13:53:07.562Z,3.70
2019-05-18T13:55:38.563Z,3.50
2019-05-18T13:58:09.688Z,3.30
2019-05-18T14:00:40.763Z,2.98
2019-05-18T14:03:11.844Z,3.65
2019-05-18T14:05:42.854Z,3.72
2019-05-18T14:08:15.659Z,3.20
2019-05-18T14:10:46.898Z,3.92
2019-05-18T14:13:18.082Z,3.20
2019-05-18T14:15:49.183Z,3.15
2019-05-18T14:18:20.186Z,3.33
2019-05-18T14:20:51.336Z,3.45
2019-05-18T14:23:22.399Z,3.42
2019-05-18T14:25:53.489Z,3.45
2019-05-18T14:28:24.558Z,3.40
2019-05-18T14:30:55.757Z,3.75
2019-05-18T14:33:26.768Z,3.75
2019-05-18T14:35:57.839Z,3.77
2019-05-18T14:38:28.927Z,3.83
2019-05-18T14:40:59.995Z,4.05
2019-05-18T14:43:31.003Z,3.90
2019-05-18T14:46:02.110Z,3.98
2019-05-18T14:48:33.186Z,3.60
2019-05-18T14:51:04.095Z,3.95
2019-05-18T14:53:35.111Z,3.62
2019-05-18T14:56:06.289Z,3.05
2019-05-18T14:58:37.311Z,3.67
2019-05-18T15:01:08.313Z,3.50
2019-05-18T15:03:39.331Z,3.62
2019-05-18T15:06:10.280Z,3.45
2019-05-18T15:08:41.191Z,3.33
2019-05-18T15:11:12.119Z,3.92
2019-05-18T15:13:43.318Z,3.67
2019-05-18T15:16:14.347Z,3.98
2019-05-18T15:18:45.356Z,3.75
2019-05-18T15:21:16.434Z,3.65
2019-05-18T15:23:47.375Z,4.03
2019-05-18T15:26:18.456Z,3.50
2019-05-18T15:28:49.457Z,3.75
2019-05-18T15:31:23.693Z,4.60
2019-05-18T15:33:53.203Z,3.92
2019-05-18T15:36:24.296Z,4.05
2019-05-18T15:38:55.380Z,3.90
2019-05-18T15:41:26.294Z,3.90
2019-05-18T15:43:57.308Z,4.35
2019-05-18T15:46:28.569Z,3.58
2019-05-18T15:48:59.645Z,3.55
2019-05-18T15:51:30.782Z,3.67
2019-05-18T15:54:01.799Z,3.70
2019-05-18T15:56:32.832Z,3.65
2019-05-18T15:59:03.848Z,3.42
2019-05-18T16:01:34.984Z,3.87
2019-05-18T16:04:06.713Z,3.70
2019-05-18T16:06:37.850Z,3.80
2019-05-18T16:09:09.030Z,3.90
2019-05-18T16:11:40.040Z,3.85
2019-05-18T16:14:11.109Z,3.83
2019-05-18T16:16:42.140Z,3.70
2019-05-18T16:19:13.144Z,3.65
2019-05-18T16:21:44.160Z,3.80
2019-05-18T16:24:15.191Z,3.58
2019-05-18T16:26:46.147Z,3.52
2019-05-18T16:29:17.165Z,3.60
2019-05-18T16:31:48.182Z,3.65
2019-05-18T16:34:19.267Z,3.72
2019-05-18T16:36:50.302Z,3.40
2019-05-18T16:39:21.386Z,3.62
2019-05-18T16:41:53.392Z,3.33
2019-05-18T16:44:24.503Z,3.62
2019-05-18T16:46:55.589Z,4.03
2019-05-18T16:49:26.694Z,4.00
2019-05-18T16:51:57.719Z,3.83
2019-05-18T16:54:28.758Z,3.98
2019-05-18T16:56:59.803Z,3.65
2019-05-18T16:59:30.889Z,3.67
2019-05-18T17:02:01.926Z,3.47
2019-05-18T17:04:33.033Z,3.98
2019-05-18T17:07:04.122Z,3.87
2019-05-18T17:09:35.221Z,4.05
2019-05-18T17:12:06.226Z,4.17
2019-05-18T17:14:37.305Z,3.70
2019-05-18T17:17:08.317Z,4.12
2019-05-18T17:19:39.316Z,3.52
2019-05-18T17:22:10.337Z,3.45
2019-05-18T17:24:41.357Z,4.30
2019-05-18T17:27:12.442Z,4.10
2019-05-18T17:29:43.554Z,4.40
2019-05-18T17:32:15.688Z,3.80
2019-05-18T17:34:46.772Z,4.50
2019-05-18T17:37:17.855Z,3.80
2019-05-18T17:39:48.973Z,4.10
2019-05-18T17:42:20.062Z,3.90
2019-05-18T17:44:51.137Z,3.98
2019-05-18T17:47:22.189Z,4.00
2019-05-18T17:49:53.191Z,4.10
2019-05-18T17:52:24.386Z,4.20
2019-05-18T17:54:57.354Z,4.50
2019-05-18T17:57:28.201Z,4.37
2019-05-18T17:59:59.286Z,5.00
2019-05-18T18:02:31.472Z,5.35
2019-05-18T18:05:02.558Z,5.12
2019-05-18T18:07:33.558Z,4.60
2019-05-18T18:10:05.792Z,5.10
2019-05-18T18:12:36.899Z,6.12
2019-05-18T18:15:08.988Z,6.08
2019-05-18T18:17:40.383Z,6.42
2019-05-18T18:20:11.573Z,7.35
2019-05-18T18:22:42.652Z,8.85
2019-05-18T18:25:13.875Z,8.35
2019-05-18T18:27:44.902Z,9.08
2019-05-18T18:30:16.719Z,11.00
2019-05-18T18:32:47.743Z,8.55
2019-05-18T18:35:18.773Z,9.23
2019-05-18T18:37:49.871Z,9.03
2019-05-18T18:40:20.963Z,8.03
2019-05-18T18:42:52.088Z,6.87
2019-05-18T18:45:23.123Z,8.28
2019-05-18T18:47:54.135Z,13.05
2019-05-18T18:50:25.469Z,12.55
2019-05-18T18:52:56.581Z,11.90
2019-05-18T18:55:27.703Z,9.05
2019-05-18T18:57:58.748Z,9.85
2019-05-18T19:00:29.663Z,10.40
2019-05-18T19:03:00.779Z,10.10
2019-05-18T19:05:31.813Z,15.60
2019-05-18T19:08:02.797Z,19.07
2019-05-18T19:10:33.802Z,21.90
2019-05-18T19:13:04.863Z,20.57
2019-05-18T19:15:35.895Z,16.02
2019-05-18T19:18:06.963Z,19.23
2019-05-18T19:20:38.071Z,25.88
2019-05-18T19:23:09.025Z,16.17
2019-05-18T19:25:40.061Z,12.82
2019-05-18T19:28:11.151Z,12.20
2019-05-18T19:30:42.185Z,14.18
2019-05-18T19:33:13.220Z,15.65
2019-05-18T19:35:44.235Z,19.02
2019-05-18T19:38:15.261Z,18.32
2019-05-18T19:40:46.562Z,21.57
2019-05-18T19:43:17.691Z,19.42
2019-05-18T19:45:48.714Z,16.20
2019-05-18T19:48:19.742Z,12.43
2019-05-18T19:50:50.839Z,12.33
2019-05-18T19:53:21.899Z,11.73
2019-05-18T19:55:52.926Z,12.68
2019-05-18T19:58:23.976Z,13.30
2019-05-18T20:00:55.082Z,13.55
2019-05-18T20:03:26.100Z,15.35
2019-05-18T20:05:57.200Z,14.40
2019-05-18T20:08:28.312Z,14.15
2019-05-18T20:10:59.360Z,16.70
2019-05-18T20:13:30.381Z,14.47
2019-05-18T20:16:01.449Z,14.63
2019-05-18T20:18:33.623Z,14.90
2019-05-18T20:21:04.637Z,15.00
2019-05-18T20:23:35.807Z,16.45
2019-05-18T20:26:06.841Z,17.98
2019-05-18T20:28:37.925Z,18.17
2019-05-18T20:31:09.055Z,18.75
2019-05-18T20:33:40.146Z,18.50
2019-05-18T20:36:11.251Z,20.23
2019-05-18T20:38:42.286Z,21.50
2019-05-18T20:41:13.389Z,22.98
2019-05-18T20:43:44.579Z,17.75
2019-05-18T20:46:15.664Z,18.95
2019-05-18T20:48:46.978Z,18.82
2019-05-18T20:51:18.078Z,20.43
2019-05-18T20:53:49.031Z,21.55
2019-05-18T20:56:20.053Z,21.45
2019-05-18T20:58:51.140Z,21.90
2019-05-18T21:01:22.241Z,18.65
2019-05-18T21:03:53.264Z,17.30
2019-05-18T21:06:24.301Z,17.35
2019-05-18T21:08:55.327Z,16.25
2019-05-18T21:11:26.339Z,13.43
2019-05-18T21:13:57.877Z,13.22
2019-05-18T21:16:28.974Z,13.68
2019-05-18T21:18:59.996Z,12.65
2019-05-18T21:21:31.026Z,13.60
2019-05-18T21:24:02.064Z,13.45
2019-05-18T21:26:33.074Z,12.03
2019-05-18T21:29:04.099Z,11.97
2019-05-18T21:31:35.155Z,12.70
2019-05-18T21:34:06.240Z,12.68
2019-05-18T21:36:37.448Z,11.75
2019-05-18T21:39:08.498Z,11.55
2019-05-18T21:41:39.597Z,12.88
2019-05-18T21:44:10.640Z,11.25
2019-05-18T21:46:41.722Z,11.88
2019-05-18T21:49:12.767Z,12.78
2019-05-18T21:51:43.792Z,12.82
2019-05-18T21:54:14.818Z,12.47
2019-05-18T21:56:45.835Z,13.30
2019-05-18T21:59:16.867Z,14.60
2019-05-18T22:01:49.112Z,14.83
2019-05-18T22:04:20.140Z,15.03
2019-05-18T22:06:51.161Z,16.87
2019-05-18T22:09:22.279Z,14.73
2019-05-18T22:11:53.324Z,15.28
2019-05-18T22:14:24.351Z,13.78
2019-05-18T22:16:55.445Z,12.82
2019-05-18T22:19:26.470Z,13.58
2019-05-18T22:21:57.498Z,13.35
2019-05-18T22:24:28.571Z,13.62
2019-05-18T22:27:00.595Z,13.72
2019-05-18T22:29:31.609Z,14.25
2019-05-18T22:32:02.709Z,13.75
2019-05-18T22:34:33.814Z,14.50
2019-05-18T22:37:04.758Z,13.08
2019-05-18T22:39:37.467Z,13.83
2019-05-18T22:42:08.488Z,13.28
2019-05-18T22:44:39.496Z,13.88
2019-05-18T22:47:10.589Z,14.30
2019-05-18T22:49:41.609Z,13.40
2019-05-18T22:52:12.643Z,13.62
2019-05-18T22:54:43.743Z,14.13
2019-05-18T22:57:14.695Z,14.63
2019-05-18T22:59:45.703Z,13.22
2019-05-18T23:02:16.734Z,14.53
2019-05-18T23:04:49.054Z,13.70
2019-05-18T23:07:20.103Z,13.25
2019-05-18T23:09:51.031Z,14.30
2019-05-18T23:12:22.153Z,14.43
2019-05-18T23:14:53.239Z,14.40
2019-05-18T23:17:24.361Z,14.80
2019-05-18T23:19:55.360Z,15.43
2019-05-18T23:22:26.576Z,14.50
2019-05-18T23:24:58.485Z,14.23
2019-05-18T23:27:29.507Z,14.20
2019-05-18T23:30:00.536Z,15.90
2019-05-18T23:32:32.834Z,15.80
2019-05-18T23:35:04.251Z,14.93
2019-05-18T23:37:35.273Z,15.65
2019-05-18T23:40:07.106Z,14.43
2019-05-18T23:42:38.126Z,14.95
2019-05-18T23:45:09.247Z,15.53
2019-05-18T23:47:40.290Z,15.15
2019-05-18T23:50:11.501Z,15.03
2019-05-18T23:52:42.588Z,14.25
2019-05-18T23:55:14.203Z,15.20
2019-05-18T23:57:45.242Z,15.70
